This is the latest recevied weather packets stored in our database for station/object IW1QNQ-15. If no packets are shown the sender has not sent any weather packets the latest 10 day(s).
| Time | Temp. | Humidity | Pressure | Rain* | Wind** | Luminosity | Snow |
|---|---|---|---|---|---|---|---|
| 1788546898 | 22.78° C | 100% | 1020.1 hPa | - | - | - | - |
| 1788545698 | 23.33° C | 95% | 1020.1 hPa | - | - | - | - |
| 1788544498 | 23.33° C | 93% | 1019.9 hPa | - | - | - | - |
| 1788543298 | 23.89° C | 92% | 1020 hPa | - | - | - | - |
| 1788542097 | 23.89° C | 90% | 1020 hPa | - | - | - | - |
| 1788539697 | 24.44° C | 86% | 1020.2 hPa | - | - | - | - |
| 1788538497 | 25° C | 87% | 1020.3 hPa | - | - | - | - |
| 1788534898 | 26.11° C | 79% | 1020.5 hPa | - | - | - | - |
| 1788533698 | 31.11° C | 58% | 1020.6 hPa | - | - | - | - |
| 1788532498 | 30° C | 66% | 1020.7 hPa | - | - | - | - |
| 1788531298 | 30° C | 65% | 1021 hPa | - | - | - | - |
| 1788530098 | 31.67° C | 62% | 1021 hPa | - | - | - | - |
| 1788524097 | 32.22° C | 58% | 1021.4 hPa | - | - | - | - |
| 1788521697 | 32.78° C | 55% | 1021.5 hPa | - | - | - | - |
| 1788520497 | 32.78° C | 56% | 1021.6 hPa | - | - | - | - |
| 1788519297 | 32.78° C | 53% | 1021.7 hPa | - | - | - | - |
| 1788518096 | 33.33° C | 50% | 1021.8 hPa | - | - | - | - |
| 1788514497 | 33.33° C | 46% | 1021.9 hPa | - | - | - | - |
| 1788513297 | 32.78° C | 49% | 1022 hPa | - | - | - | - |
| 1788510897 | 31.67° C | 48% | 1021.7 hPa | - | - | - | - |
| 1788509697 | 31.11° C | 51% | 1021.5 hPa | - | - | - | - |
| 1788508497 | 31.11° C | 49% | 1021.5 hPa | - | - | - | - |
| 1788506096 | 28.89° C | 58% | 1021.3 hPa | - | - | - | - |
| 1788503696 | 26.11° C | 65% | 1021.3 hPa | - | - | - | - |
| 1788502496 | 26.11° C | 64% | 1021.1 hPa | - | - | - | - |
* Rain since midnight (hover to see other rain measurements)
** Current wind speed in m/s (hover to see current wind gust speed)